EWG2969 LDSP-EDDS
Flight info
| Callsign | EWG2969 |
|---|---|
| Flight time | N/A |
| Altitude | 38000 |
| Route | ZDA1V ZDA DCT RAVNA DCT ULPIN DCT GIRDA DCT INGID DCT SBG DCT TITIG L173 DODIL T127 TEKSI TEK07 |
| Aircraft | A319/M-SDE3FGHIRWY/LB1 |
Departure
| Time | 2026-05-04 11:43 |
|---|---|
| Airport | Split Saint Jerome Airport (LDSP) |
Arrival
| Time | N/A |
|---|---|
| Airport | Stuttgart Airport (EDDS) |
| Time | Latitude | Longitude | Altitude | Speed | Heading |
|---|---|---|---|---|---|
| 2026-05-04 11:05 | 43.53659 | 16.29756 | 68 ft | 0 kts | 92° |
| 2026-05-04 11:34 | 43.53659 | 16.29755 | 68 ft | 1 kts | 92° |
| 2026-05-04 11:34 | 43.53660 | 16.29730 | 68 ft | 4 kts | 100° |
| 2026-05-04 11:34 | 43.53669 | 16.29695 | 68 ft | 4 kts | 129° |
| 2026-05-04 11:34 | 43.53688 | 16.29676 | 68 ft | 4 kts | 194° |
| 2026-05-04 11:35 | 43.53697 | 16.29680 | 68 ft | 0 kts | 232° |
| 2026-05-04 11:38 | 43.53696 | 16.29679 | 68 ft | 1 kts | 232° |
| 2026-05-04 11:38 | 43.53685 | 16.29653 | 68 ft | 5 kts | 248° |
| 2026-05-04 11:38 | 43.53691 | 16.29610 | 70 ft | 3 kts | 289° |
| 2026-05-04 11:39 | 43.53692 | 16.29605 | 71 ft | 0 kts | 288° |
| 2026-05-04 11:39 | 43.53696 | 16.29583 | 73 ft | 5 kts | 281° |
| 2026-05-04 11:40 | 43.53330 | 16.28776 | 84 ft | 22 kts | 232° |
| 2026-05-04 11:41 | 43.53241 | 16.28632 | 71 ft | 14 kts | 207° |
| 2026-05-04 11:41 | 43.53209 | 16.28590 | 78 ft | 4 kts | 329° |
| 2026-05-04 11:41 | 43.53242 | 16.28614 | 78 ft | 7 kts | 54° |
| 2026-05-04 11:41 | 43.53247 | 16.28624 | 78 ft | 0 kts | 54° |
| 2026-05-04 11:42 | 43.53312 | 16.28744 | 81 ft | 50 kts | 53° |
| 2026-05-04 11:42 | 43.53681 | 16.29411 | 72 ft | 122 kts | 52° |
| 2026-05-04 11:42 | 43.54294 | 16.30521 | 295 ft | 153 kts | 54° |
| 2026-05-04 11:43 | 43.54911 | 16.31694 | 963 ft | 154 kts | 55° |
| 2026-05-04 11:43 | 43.55496 | 16.32995 | 1561 ft | 165 kts | 67° |
| 2026-05-04 11:43 | 43.55625 | 16.34613 | 2184 ft | 181 kts | 103° |
| 2026-05-04 11:43 | 43.54978 | 16.36146 | 2840 ft | 193 kts | 140° |
| 2026-05-04 11:44 | 43.53764 | 16.36868 | 3488 ft | 197 kts | 173° |
| 2026-05-04 11:44 | 43.52408 | 16.37174 | 4236 ft | 199 kts | 159° |
| 2026-05-04 11:44 | 43.51145 | 16.38011 | 4863 ft | 206 kts | 153° |
| 2026-05-04 11:44 | 43.49873 | 16.38925 | 5376 ft | 206 kts | 152° |
| 2026-05-04 11:45 | 43.48608 | 16.39850 | 6175 ft | 206 kts | 152° |
| 2026-05-04 11:45 | 43.47320 | 16.40745 | 6872 ft | 209 kts | 161° |
| 2026-05-04 11:45 | 43.45883 | 16.40799 | 7507 ft | 209 kts | 197° |
| 2026-05-04 11:45 | 43.44429 | 16.40259 | 7980 ft | 228 kts | 201° |
| 2026-05-04 11:46 | 43.43115 | 16.38911 | 8291 ft | 250 kts | 232° |
| 2026-05-04 11:46 | 43.42104 | 16.36836 | 8694 ft | 274 kts | 241° |
| 2026-05-04 11:46 | 43.41138 | 16.34496 | 9308 ft | 287 kts | 242° |
| 2026-05-04 11:46 | 43.40114 | 16.32104 | 10135 ft | 293 kts | 239° |
| 2026-05-04 11:47 | 43.38975 | 16.29661 | 10587 ft | 316 kts | 237° |
| 2026-05-04 11:47 | 43.37687 | 16.27119 | 11123 ft | 332 kts | 235° |
| 2026-05-04 11:47 | 43.36325 | 16.24496 | 11866 ft | 339 kts | 239° |
| 2026-05-04 11:47 | 43.35574 | 16.21431 | 12573 ft | 344 kts | 267° |
| 2026-05-04 11:48 | 43.35943 | 16.18218 | 13323 ft | 344 kts | 295° |
| 2026-05-04 11:48 | 43.37297 | 16.15523 | 14098 ft | 344 kts | 316° |
| 2026-05-04 11:48 | 43.39109 | 16.13384 | 14864 ft | 345 kts | 325° |
| 2026-05-04 11:48 | 43.41100 | 16.11522 | 15597 ft | 348 kts | 328° |
| 2026-05-04 11:49 | 43.43142 | 16.09711 | 16301 ft | 351 kts | 328° |
| 2026-05-04 11:49 | 43.45182 | 16.07831 | 17013 ft | 355 kts | 327° |
| 2026-05-04 11:49 | 43.47197 | 16.05840 | 17727 ft | 358 kts | 324° |
| 2026-05-04 11:49 | 43.49189 | 16.03752 | 18395 ft | 362 kts | 323° |
| 2026-05-04 11:50 | 43.51171 | 16.01589 | 19067 ft | 365 kts | 322° |
| 2026-05-04 11:50 | 43.53157 | 15.99375 | 19733 ft | 368 kts | 322° |
| 2026-05-04 11:50 | 43.55154 | 15.97134 | 20360 ft | 372 kts | 322° |
| 2026-05-04 11:50 | 43.57174 | 15.94873 | 20987 ft | 375 kts | 322° |
| 2026-05-04 11:51 | 43.59210 | 15.92606 | 21624 ft | 378 kts | 322° |
| 2026-05-04 11:51 | 43.61266 | 15.90326 | 22195 ft | 380 kts | 322° |
| 2026-05-04 11:51 | 43.63339 | 15.88033 | 22773 ft | 383 kts | 322° |
| 2026-05-04 11:51 | 43.65424 | 15.85730 | 23329 ft | 386 kts | 322° |
| 2026-05-04 11:52 | 43.67525 | 15.83410 | 23876 ft | 388 kts | 322° |
| 2026-05-04 11:52 | 43.69644 | 15.81068 | 24397 ft | 391 kts | 322° |
| 2026-05-04 11:52 | 43.71770 | 15.78709 | 24909 ft | 394 kts | 322° |
| 2026-05-04 11:52 | 43.73912 | 15.76325 | 25430 ft | 395 kts | 322° |
| 2026-05-04 11:53 | 43.76054 | 15.73940 | 25919 ft | 397 kts | 322° |
| 2026-05-04 11:53 | 43.78214 | 15.71536 | 26416 ft | 398 kts | 322° |
| 2026-05-04 11:53 | 43.80375 | 15.69130 | 26910 ft | 400 kts | 322° |
| 2026-05-04 11:53 | 43.82545 | 15.66713 | 27369 ft | 402 kts | 322° |
| 2026-05-04 11:55 | 43.97913 | 15.49502 | 30340 ft | 411 kts | 321° |
| 2026-05-04 11:55 | 44.00135 | 15.47004 | 30705 ft | 413 kts | 321° |
| 2026-05-04 11:56 | 44.02372 | 15.44488 | 31066 ft | 414 kts | 321° |
| 2026-05-04 11:56 | 44.04621 | 15.41958 | 31385 ft | 417 kts | 321° |
| 2026-05-04 11:56 | 44.06878 | 15.39413 | 31700 ft | 419 kts | 321° |
| 2026-05-04 11:56 | 44.09145 | 15.36852 | 32077 ft | 419 kts | 321° |
| 2026-05-04 11:57 | 44.11401 | 15.34299 | 32547 ft | 417 kts | 320° |
| 2026-05-04 11:57 | 44.13638 | 15.31738 | 33009 ft | 415 kts | 320° |
| 2026-05-04 11:57 | 44.15853 | 15.29179 | 33455 ft | 414 kts | 320° |
| 2026-05-04 11:57 | 44.18064 | 15.26612 | 33880 ft | 412 kts | 319° |
| 2026-05-04 11:58 | 44.20259 | 15.24058 | 34312 ft | 411 kts | 319° |
| 2026-05-04 11:58 | 44.22451 | 15.21512 | 34732 ft | 410 kts | 319° |
| 2026-05-04 11:58 | 44.24645 | 15.18968 | 35105 ft | 409 kts | 319° |
| 2026-05-04 11:58 | 44.26836 | 15.16428 | 35449 ft | 409 kts | 319° |
| 2026-05-04 11:59 | 44.29024 | 15.13891 | 35784 ft | 409 kts | 319° |
| 2026-05-04 11:59 | 44.31208 | 15.11357 | 36108 ft | 408 kts | 319° |
| 2026-05-04 11:59 | 44.33389 | 15.08820 | 36399 ft | 408 kts | 319° |
| 2026-05-04 11:59 | 44.35539 | 15.06313 | 36665 ft | 409 kts | 319° |
| 2026-05-04 12:00 | 44.37720 | 15.03767 | 36949 ft | 408 kts | 319° |
| 2026-05-04 12:00 | 44.39895 | 15.01227 | 37238 ft | 408 kts | 319° |
| 2026-05-04 12:00 | 44.42072 | 14.98682 | 37542 ft | 407 kts | 319° |
| 2026-05-04 12:00 | 44.44243 | 14.96146 | 37865 ft | 406 kts | 319° |
| 2026-05-04 12:01 | 44.46404 | 14.93619 | 38106 ft | 405 kts | 319° |
| 2026-05-04 12:02 | 44.61350 | 14.76041 | 38144 ft | 400 kts | 319° |
| 2026-05-04 12:03 | 44.65613 | 14.71013 | 38130 ft | 400 kts | 319° |
| 2026-05-04 12:03 | 44.69918 | 14.66043 | 38130 ft | 401 kts | 324° |
| 2026-05-04 12:04 | 44.74880 | 14.62402 | 38132 ft | 404 kts | 333° |
| 2026-05-04 12:04 | 44.79966 | 14.59027 | 38131 ft | 404 kts | 332° |
| 2026-05-04 12:05 | 44.85044 | 14.55631 | 38133 ft | 404 kts | 332° |
| 2026-05-04 12:05 | 44.90125 | 14.52234 | 38130 ft | 404 kts | 333° |
| 2026-05-04 12:06 | 44.95207 | 14.48833 | 38127 ft | 404 kts | 332° |
| 2026-05-04 12:06 | 45.00292 | 14.45424 | 38129 ft | 405 kts | 333° |
| 2026-05-04 12:07 | 45.05377 | 14.42005 | 38131 ft | 405 kts | 332° |
| 2026-05-04 12:07 | 45.10464 | 14.38577 | 38131 ft | 405 kts | 333° |
| 2026-05-04 12:08 | 45.15556 | 14.35148 | 38132 ft | 405 kts | 333° |
| 2026-05-04 12:08 | 45.20649 | 14.31714 | 38134 ft | 406 kts | 332° |
| 2026-05-04 12:09 | 45.25736 | 14.28263 | 38132 ft | 406 kts | 332° |
| 2026-05-04 12:09 | 45.30840 | 14.24795 | 38129 ft | 406 kts | 333° |
| 2026-05-04 12:10 | 45.35953 | 14.21323 | 38116 ft | 408 kts | 332° |
| 2026-05-04 12:10 | 45.41080 | 14.17821 | 38113 ft | 410 kts | 332° |
| 2026-05-04 12:11 | 45.46230 | 14.14341 | 38112 ft | 411 kts | 336° |
| 2026-05-04 12:11 | 45.51799 | 14.12379 | 38112 ft | 415 kts | 348° |
| 2026-05-04 12:12 | 45.56572 | 14.11239 | 38110 ft | 415 kts | 348° |
| 2026-05-04 12:12 | 45.62235 | 14.09848 | 38109 ft | 416 kts | 348° |
| 2026-05-04 12:14 | 45.85068 | 14.04266 | 38107 ft | 417 kts | 348° |
| 2026-05-04 12:15 | 45.90791 | 14.02841 | 38107 ft | 418 kts | 348° |
| 2026-05-04 12:15 | 45.96513 | 14.01431 | 38108 ft | 417 kts | 348° |
| 2026-05-04 12:16 | 46.02236 | 14.00030 | 38106 ft | 417 kts | 348° |
| 2026-05-04 12:16 | 46.07951 | 13.98616 | 38105 ft | 417 kts | 348° |
| 2026-05-04 12:17 | 46.13671 | 13.97195 | 38101 ft | 417 kts | 348° |
| 2026-05-04 12:17 | 46.19385 | 13.95782 | 38103 ft | 417 kts | 348° |
| 2026-05-04 12:18 | 46.25096 | 13.94365 | 38102 ft | 417 kts | 348° |
| 2026-05-04 12:18 | 46.30820 | 13.92938 | 38093 ft | 417 kts | 348° |
| 2026-05-04 12:19 | 46.36535 | 13.91508 | 38090 ft | 417 kts | 348° |